Woodside, New York
Current Conditions -  °F | °C
As of 7:51 PM on Wednesday 22 Oct 2014 (Local Time) from KLGA Reporting Station
Light Rain Light Rain  
Wind Chill: 12°   Ceiling: 2100
Heat Index: 12°   Visibility: 10mi
Dew Point:   Wind: 17mph
Humidity: 86%   Direction: 360°N
Pressure: 29.77"   Gusts: 26mph
Location:  40.75°N, 73.91°W
Report Text: KLGA 222351Z 36015G23KT 10SM -RA BKN021 OVC028 12/09 A2977 RMK AO2 SLP082 P0011 60035 T01170094 10150 20111 58020
Loading
Personal Weather Stations






























Interactive Weather Map
Tropical Storm Tracking
New forecast layout! Learn more

10-Day Weather Forecast

Advertisements
Track Severe Weather on mobile